sensor_id;sensor_type;location;lat;lon;timestamp;temperature;humidity
12130;DHT22;6128;59.340;18.040;2022-08-19T00:01:57;20.00;99.90
12130;DHT22;6128;59.340;18.040;2022-08-19T00:04:27;19.90;99.90
12130;DHT22;6128;59.340;18.040;2022-08-19T00:06:54;19.90;99.90
12130;DHT22;6128;59.340;18.040;2022-08-19T00:09:23;19.90;99.90
12130;DHT22;6128;59.340;18.040;2022-08-19T00:11:51;19.80;99.90
12130;DHT22;6128;59.340;18.040;2022-08-19T00:14:19;19.80;99.90
12130;DHT22;6128;59.340;18.040;2022-08-19T00:16:48;19.80;99.90
12130;DHT22;6128;59.340;18.040;2022-08-19T00:19:17;19.80;99.90
12130;DHT22;6128;59.340;18.040;2022-08-19T00:21:44;19.80;99.90
12130;DHT22;6128;59.340;18.040;2022-08-19T00:24:13;19.80;99.90
12130;DHT22;6128;59.340;18.040;2022-08-19T00:26:43;19.80;99.90
12130;DHT22;6128;59.340;18.040;2022-08-19T00:29:13;19.80;99.90
12130;DHT22;6128;59.340;18.040;2022-08-19T00:31:40;19.90;99.90
12130;DHT22;6128;59.340;18.040;2022-08-19T00:34:08;19.90;99.90
12130;DHT22;6128;59.340;18.040;2022-08-19T00:36:37;19.90;99.90
12130;DHT22;6128;59.340;18.040;2022-08-19T00:39:05;19.90;99.90
12130;DHT22;6128;59.340;18.040;2022-08-19T00:41:32;19.90;99.90
12130;DHT22;6128;59.340;18.040;2022-08-19T00:44:04;19.90;99.90
12130;DHT22;6128;59.340;18.040;2022-08-19T00:46:32;19.90;99.90
12130;DHT22;6128;59.340;18.040;2022-08-19T00:49:09;20.00;99.90
12130;DHT22;6128;59.340;18.040;2022-08-19T00:51:41;20.10;99.90
12130;DHT22;6128;59.340;18.040;2022-08-19T00:54:09;20.10;99.90
12130;DHT22;6128;59.340;18.040;2022-08-19T00:56:37;20.20;99.90
12130;DHT22;6128;59.340;18.040;2022-08-19T00:59:06;20.20;99.90
12130;DHT22;6128;59.340;18.040;2022-08-19T01:01:34;20.30;99.90
12130;DHT22;6128;59.340;18.040;2022-08-19T01:04:02;20.30;99.90
12130;DHT22;6128;59.340;18.040;2022-08-19T01:06:30;20.30;99.90
12130;DHT22;6128;59.340;18.040;2022-08-19T01:08:58;20.30;99.90
12130;DHT22;6128;59.340;18.040;2022-08-19T01:11:27;20.30;99.90
12130;DHT22;6128;59.340;18.040;2022-08-19T01:13:55;20.40;99.90
12130;DHT22;6128;59.340;18.040;2022-08-19T01:16:25;20.40;99.90
12130;DHT22;6128;59.340;18.040;2022-08-19T01:18:54;20.40;99.90
12130;DHT22;6128;59.340;18.040;2022-08-19T01:21:26;20.40;99.90
12130;DHT22;6128;59.340;18.040;2022-08-19T01:23:58;20.40;99.90
12130;DHT22;6128;59.340;18.040;2022-08-19T01:26:27;20.40;99.90
12130;DHT22;6128;59.340;18.040;2022-08-19T01:28:56;20.40;99.90
12130;DHT22;6128;59.340;18.040;2022-08-19T01:31:25;20.40;99.90
12130;DHT22;6128;59.340;18.040;2022-08-19T01:33:54;20.50;99.90
12130;DHT22;6128;59.340;18.040;2022-08-19T01:36:24;20.50;99.90
12130;DHT22;6128;59.340;18.040;2022-08-19T01:38:52;20.50;99.90
12130;DHT22;6128;59.340;18.040;2022-08-19T01:41:23;20.50;99.90
12130;DHT22;6128;59.340;18.040;2022-08-19T01:43:51;20.50;99.90
12130;DHT22;6128;59.340;18.040;2022-08-19T01:46:19;20.60;99.90
12130;DHT22;6128;59.340;18.040;2022-08-19T01:48:46;20.60;99.90
12130;DHT22;6128;59.340;18.040;2022-08-19T01:51:14;20.60;99.90
12130;DHT22;6128;59.340;18.040;2022-08-19T01:53:41;20.60;99.90
12130;DHT22;6128;59.340;18.040;2022-08-19T01:56:09;20.60;99.90
12130;DHT22;6128;59.340;18.040;2022-08-19T01:58:40;20.60;99.90
12130;DHT22;6128;59.340;18.040;2022-08-19T02:01:08;20.60;99.90
12130;DHT22;6128;59.340;18.040;2022-08-19T02:03:35;20.60;99.90
12130;DHT22;6128;59.340;18.040;2022-08-19T02:06:03;20.60;99.90
12130;DHT22;6128;59.340;18.040;2022-08-19T02:08:33;20.60;99.90
12130;DHT22;6128;59.340;18.040;2022-08-19T02:11:01;20.60;99.90
12130;DHT22;6128;59.340;18.040;2022-08-19T02:13:29;20.60;99.90
12130;DHT22;6128;59.340;18.040;2022-08-19T02:15:57;20.60;99.90
12130;DHT22;6128;59.340;18.040;2022-08-19T02:18:24;20.60;99.90
12130;DHT22;6128;59.340;18.040;2022-08-19T02:20:52;20.60;99.90
12130;DHT22;6128;59.340;18.040;2022-08-19T02:23:19;20.60;99.90
12130;DHT22;6128;59.340;18.040;2022-08-19T02:25:47;20.60;99.90
12130;DHT22;6128;59.340;18.040;2022-08-19T02:28:15;20.60;99.90
12130;DHT22;6128;59.340;18.040;2022-08-19T02:30:42;20.70;99.90
12130;DHT22;6128;59.340;18.040;2022-08-19T02:33:11;20.60;99.90
12130;DHT22;6128;59.340;18.040;2022-08-19T02:35:41;20.60;99.90
12130;DHT22;6128;59.340;18.040;2022-08-19T02:38:08;20.60;99.90
12130;DHT22;6128;59.340;18.040;2022-08-19T02:40:55;20.60;99.90
12130;DHT22;6128;59.340;18.040;2022-08-19T02:43:23;20.60;99.90
12130;DHT22;6128;59.340;18.040;2022-08-19T02:45:52;20.70;99.90
12130;DHT22;6128;59.340;18.040;2022-08-19T02:48:22;20.70;99.90
12130;DHT22;6128;59.340;18.040;2022-08-19T02:50:50;20.70;99.90
12130;DHT22;6128;59.340;18.040;2022-08-19T02:53:21;20.70;99.90
12130;DHT22;6128;59.340;18.040;2022-08-19T02:55:49;20.70;99.90
12130;DHT22;6128;59.340;18.040;2022-08-19T02:58:17;20.70;99.90
12130;DHT22;6128;59.340;18.040;2022-08-19T03:00:47;20.70;99.90
12130;DHT22;6128;59.340;18.040;2022-08-19T03:03:15;20.70;99.90
12130;DHT22;6128;59.340;18.040;2022-08-19T03:05:47;20.60;99.90
12130;DHT22;6128;59.340;18.040;2022-08-19T03:08:20;20.60;99.90
12130;DHT22;6128;59.340;18.040;2022-08-19T03:10:48;20.60;99.90
12130;DHT22;6128;59.340;18.040;2022-08-19T03:13:16;20.50;99.90
12130;DHT22;6128;59.340;18.040;2022-08-19T03:15:46;20.50;99.90
12130;DHT22;6128;59.340;18.040;2022-08-19T03:18:13;20.50;99.90
12130;DHT22;6128;59.340;18.040;2022-08-19T03:20:44;20.50;99.90
12130;DHT22;6128;59.340;18.040;2022-08-19T03:23:12;20.50;99.90
12130;DHT22;6128;59.340;18.040;2022-08-19T03:25:43;20.50;99.90
12130;DHT22;6128;59.340;18.040;2022-08-19T03:28:12;20.50;99.90
12130;DHT22;6128;59.340;18.040;2022-08-19T03:30:40;20.50;99.90
12130;DHT22;6128;59.340;18.040;2022-08-19T03:33:08;20.40;99.90
12130;DHT22;6128;59.340;18.040;2022-08-19T03:35:37;20.40;99.90
12130;DHT22;6128;59.340;18.040;2022-08-19T03:38:06;20.30;99.90
12130;DHT22;6128;59.340;18.040;2022-08-19T03:40:36;20.40;99.90
12130;DHT22;6128;59.340;18.040;2022-08-19T03:43:03;20.50;99.90
12130;DHT22;6128;59.340;18.040;2022-08-19T03:45:31;20.50;99.90
12130;DHT22;6128;59.340;18.040;2022-08-19T03:47:58;20.60;99.90
12130;DHT22;6128;59.340;18.040;2022-08-19T03:50:26;20.60;99.90
12130;DHT22;6128;59.340;18.040;2022-08-19T03:52:53;20.60;99.90
12130;DHT22;6128;59.340;18.040;2022-08-19T03:55:21;20.60;99.90
12130;DHT22;6128;59.340;18.040;2022-08-19T03:57:49;20.60;99.90
12130;DHT22;6128;59.340;18.040;2022-08-19T04:00:16;20.60;99.90
12130;DHT22;6128;59.340;18.040;2022-08-19T04:02:43;20.60;99.90
12130;DHT22;6128;59.340;18.040;2022-08-19T04:05:11;20.70;99.90
12130;DHT22;6128;59.340;18.040;2022-08-19T04:07:39;20.70;99.90
12130;DHT22;6128;59.340;18.040;2022-08-19T04:10:07;20.80;99.90
12130;DHT22;6128;59.340;18.040;2022-08-19T04:12:36;20.80;99.90
12130;DHT22;6128;59.340;18.040;2022-08-19T04:15:04;20.80;99.90
12130;DHT22;6128;59.340;18.040;2022-08-19T04:17:32;20.80;99.90
12130;DHT22;6128;59.340;18.040;2022-08-19T04:19:59;20.80;99.90
12130;DHT22;6128;59.340;18.040;2022-08-19T04:22:27;20.90;99.90
12130;DHT22;6128;59.340;18.040;2022-08-19T04:24:54;20.90;99.90
12130;DHT22;6128;59.340;18.040;2022-08-19T04:27:21;20.90;99.90
12130;DHT22;6128;59.340;18.040;2022-08-19T04:29:50;20.90;99.90
12130;DHT22;6128;59.340;18.040;2022-08-19T04:32:18;20.90;99.90
12130;DHT22;6128;59.340;18.040;2022-08-19T04:34:45;21.00;99.90
12130;DHT22;6128;59.340;18.040;2022-08-19T04:37:12;21.10;99.90
12130;DHT22;6128;59.340;18.040;2022-08-19T04:39:39;21.10;99.90
12130;DHT22;6128;59.340;18.040;2022-08-19T04:42:24;21.10;99.90
12130;DHT22;6128;59.340;18.040;2022-08-19T04:45:10;21.10;99.90
12130;DHT22;6128;59.340;18.040;2022-08-19T04:47:37;21.10;99.90
12130;DHT22;6128;59.340;18.040;2022-08-19T04:50:06;21.10;99.90
12130;DHT22;6128;59.340;18.040;2022-08-19T04:52:35;21.10;99.90
12130;DHT22;6128;59.340;18.040;2022-08-19T04:55:03;21.10;99.90
12130;DHT22;6128;59.340;18.040;2022-08-19T04:57:32;21.20;99.90
12130;DHT22;6128;59.340;18.040;2022-08-19T04:59:59;21.20;99.90
12130;DHT22;6128;59.340;18.040;2022-08-19T05:02:28;21.20;99.90
12130;DHT22;6128;59.340;18.040;2022-08-19T05:04:57;21.20;99.90
12130;DHT22;6128;59.340;18.040;2022-08-19T05:07:26;21.20;99.90
12130;DHT22;6128;59.340;18.040;2022-08-19T05:09:53;21.20;99.90
12130;DHT22;6128;59.340;18.040;2022-08-19T05:12:21;21.20;99.90
12130;DHT22;6128;59.340;18.040;2022-08-19T05:14:48;21.20;99.90
12130;DHT22;6128;59.340;18.040;2022-08-19T05:17:15;21.20;99.90
12130;DHT22;6128;59.340;18.040;2022-08-19T05:19:44;21.20;99.90
12130;DHT22;6128;59.340;18.040;2022-08-19T05:22:28;21.10;99.90
12130;DHT22;6128;59.340;18.040;2022-08-19T05:25:04;21.10;99.90
12130;DHT22;6128;59.340;18.040;2022-08-19T05:27:32;21.00;99.90
12130;DHT22;6128;59.340;18.040;2022-08-19T05:29:59;21.00;99.90
12130;DHT22;6128;59.340;18.040;2022-08-19T05:32:27;21.10;99.90
12130;DHT22;6128;59.340;18.040;2022-08-19T05:34:56;21.10;99.90
12130;DHT22;6128;59.340;18.040;2022-08-19T05:37:23;21.20;99.90
12130;DHT22;6128;59.340;18.040;2022-08-19T05:39:52;21.20;99.90
12130;DHT22;6128;59.340;18.040;2022-08-19T05:42:20;21.30;99.90
12130;DHT22;6128;59.340;18.040;2022-08-19T05:44:49;21.40;99.90
12130;DHT22;6128;59.340;18.040;2022-08-19T05:47:17;21.50;99.90
12130;DHT22;6128;59.340;18.040;2022-08-19T05:49:45;21.50;99.90
12130;DHT22;6128;59.340;18.040;2022-08-19T05:52:15;21.60;99.90
12130;DHT22;6128;59.340;18.040;2022-08-19T05:54:43;21.70;99.90
12130;DHT22;6128;59.340;18.040;2022-08-19T05:57:14;21.80;99.90
12130;DHT22;6128;59.340;18.040;2022-08-19T05:59:41;22.00;99.90
12130;DHT22;6128;59.340;18.040;2022-08-19T06:02:11;22.20;99.90
12130;DHT22;6128;59.340;18.040;2022-08-19T06:04:39;22.30;99.90
12130;DHT22;6128;59.340;18.040;2022-08-19T06:07:08;22.40;99.90
12130;DHT22;6128;59.340;18.040;2022-08-19T06:09:37;22.40;99.90
12130;DHT22;6128;59.340;18.040;2022-08-19T06:12:04;22.30;99.90
12130;DHT22;6128;59.340;18.040;2022-08-19T06:14:34;22.40;99.90
12130;DHT22;6128;59.340;18.040;2022-08-19T06:17:02;22.40;99.90
12130;DHT22;6128;59.340;18.040;2022-08-19T06:19:30;22.50;99.90
12130;DHT22;6128;59.340;18.040;2022-08-19T06:21:59;22.50;99.90
12130;DHT22;6128;59.340;18.040;2022-08-19T06:24:28;22.60;99.90
12130;DHT22;6128;59.340;18.040;2022-08-19T06:26:59;22.60;99.90
12130;DHT22;6128;59.340;18.040;2022-08-19T06:29:27;22.80;99.90
12130;DHT22;6128;59.340;18.040;2022-08-19T06:31:57;23.10;99.90
12130;DHT22;6128;59.340;18.040;2022-08-19T06:34:25;23.60;99.90
12130;DHT22;6128;59.340;18.040;2022-08-19T06:36:54;24.30;99.90
12130;DHT22;6128;59.340;18.040;2022-08-19T06:39:24;24.90;99.90
12130;DHT22;6128;59.340;18.040;2022-08-19T06:41:53;25.50;99.90
12130;DHT22;6128;59.340;18.040;2022-08-19T06:44:25;26.00;99.90
12130;DHT22;6128;59.340;18.040;2022-08-19T06:46:53;26.30;99.90
12130;DHT22;6128;59.340;18.040;2022-08-19T06:49:20;26.70;99.90
12130;DHT22;6128;59.340;18.040;2022-08-19T06:51:48;26.80;99.90
12130;DHT22;6128;59.340;18.040;2022-08-19T06:54:17;27.20;99.90
12130;DHT22;6128;59.340;18.040;2022-08-19T06:56:45;27.80;99.90
12130;DHT22;6128;59.340;18.040;2022-08-19T06:59:14;28.20;99.90
12130;DHT22;6128;59.340;18.040;2022-08-19T07:01:44;28.60;99.90
12130;DHT22;6128;59.340;18.040;2022-08-19T07:04:14;28.90;99.90
12130;DHT22;6128;59.340;18.040;2022-08-19T07:06:42;29.10;99.90
12130;DHT22;6128;59.340;18.040;2022-08-19T07:09:11;29.20;99.90
12130;DHT22;6128;59.340;18.040;2022-08-19T07:11:43;29.50;99.90
12130;DHT22;6128;59.340;18.040;2022-08-19T07:14:11;29.80;99.90
12130;DHT22;6128;59.340;18.040;2022-08-19T07:16:39;30.10;99.90
12130;DHT22;6128;59.340;18.040;2022-08-19T07:19:08;30.20;99.90
12130;DHT22;6128;59.340;18.040;2022-08-19T07:21:35;30.40;99.90
12130;DHT22;6128;59.340;18.040;2022-08-19T07:24:03;30.10;99.90
12130;DHT22;6128;59.340;18.040;2022-08-19T07:26:32;30.20;99.90
12130;DHT22;6128;59.340;18.040;2022-08-19T07:29:00;30.30;99.90
12130;DHT22;6128;59.340;18.040;2022-08-19T07:31:28;30.50;99.90
12130;DHT22;6128;59.340;18.040;2022-08-19T07:33:56;30.80;99.90
12130;DHT22;6128;59.340;18.040;2022-08-19T07:36:26;30.90;99.90
12130;DHT22;6128;59.340;18.040;2022-08-19T07:38:59;31.10;99.90
12130;DHT22;6128;59.340;18.040;2022-08-19T07:41:28;31.20;99.90
12130;DHT22;6128;59.340;18.040;2022-08-19T07:43:58;31.30;99.90
12130;DHT22;6128;59.340;18.040;2022-08-19T07:46:30;31.30;99.90
12130;DHT22;6128;59.340;18.040;2022-08-19T07:48:58;31.10;99.90
12130;DHT22;6128;59.340;18.040;2022-08-19T07:51:28;31.00;99.90
12130;DHT22;6128;59.340;18.040;2022-08-19T07:53:58;31.00;99.90
12130;DHT22;6128;59.340;18.040;2022-08-19T07:56:25;30.80;99.90
12130;DHT22;6128;59.340;18.040;2022-08-19T07:58:53;30.70;99.90
12130;DHT22;6128;59.340;18.040;2022-08-19T08:01:22;30.60;99.90
12130;DHT22;6128;59.340;18.040;2022-08-19T08:03:51;30.40;99.90
12130;DHT22;6128;59.340;18.040;2022-08-19T08:06:38;30.40;99.90
12130;DHT22;6128;59.340;18.040;2022-08-19T08:09:26;30.40;99.90
12130;DHT22;6128;59.340;18.040;2022-08-19T08:11:56;30.40;99.90
12130;DHT22;6128;59.340;18.040;2022-08-19T08:14:26;30.30;99.90
12130;DHT22;6128;59.340;18.040;2022-08-19T08:16:54;30.40;99.90
12130;DHT22;6128;59.340;18.040;2022-08-19T08:19:22;30.40;99.90
12130;DHT22;6128;59.340;18.040;2022-08-19T08:21:53;30.40;99.90
12130;DHT22;6128;59.340;18.040;2022-08-19T08:24:21;30.60;99.90
12130;DHT22;6128;59.340;18.040;2022-08-19T08:26:49;30.60;99.90
12130;DHT22;6128;59.340;18.040;2022-08-19T08:29:16;30.60;99.90
12130;DHT22;6128;59.340;18.040;2022-08-19T08:31:46;30.50;99.90
12130;DHT22;6128;59.340;18.040;2022-08-19T08:34:14;30.50;99.90
12130;DHT22;6128;59.340;18.040;2022-08-19T08:36:43;30.60;99.90
12130;DHT22;6128;59.340;18.040;2022-08-19T08:39:14;30.60;99.90
12130;DHT22;6128;59.340;18.040;2022-08-19T08:41:47;30.40;99.90
12130;DHT22;6128;59.340;18.040;2022-08-19T08:44:19;30.30;99.90
12130;DHT22;6128;59.340;18.040;2022-08-19T08:46:49;30.00;99.90
12130;DHT22;6128;59.340;18.040;2022-08-19T08:49:26;30.00;99.90
12130;DHT22;6128;59.340;18.040;2022-08-19T08:52:00;30.10;99.90
12130;DHT22;6128;59.340;18.040;2022-08-19T08:54:35;30.40;99.90
12130;DHT22;6128;59.340;18.040;2022-08-19T08:57:07;30.70;99.90
12130;DHT22;6128;59.340;18.040;2022-08-19T08:59:40;30.80;99.90
12130;DHT22;6128;59.340;18.040;2022-08-19T09:02:08;31.10;99.90
12130;DHT22;6128;59.340;18.040;2022-08-19T09:04:36;31.40;99.90
12130;DHT22;6128;59.340;18.040;2022-08-19T09:07:16;31.60;99.90
12130;DHT22;6128;59.340;18.040;2022-08-19T09:09:50;31.60;99.90
12130;DHT22;6128;59.340;18.040;2022-08-19T09:12:25;31.60;99.90
12130;DHT22;6128;59.340;18.040;2022-08-19T09:14:58;31.60;99.90
12130;DHT22;6128;59.340;18.040;2022-08-19T09:17:29;31.40;99.90
12130;DHT22;6128;59.340;18.040;2022-08-19T09:20:01;31.40;99.90
12130;DHT22;6128;59.340;18.040;2022-08-19T09:22:30;31.70;99.90
12130;DHT22;6128;59.340;18.040;2022-08-19T09:24:59;32.00;99.90
12130;DHT22;6128;59.340;18.040;2022-08-19T09:27:27;32.10;99.90
12130;DHT22;6128;59.340;18.040;2022-08-19T09:29:55;31.80;99.90
12130;DHT22;6128;59.340;18.040;2022-08-19T09:32:23;31.20;99.90
12130;DHT22;6128;59.340;18.040;2022-08-19T09:34:50;30.50;99.90
12130;DHT22;6128;59.340;18.040;2022-08-19T09:37:20;29.70;99.90
12130;DHT22;6128;59.340;18.040;2022-08-19T09:39:47;29.30;99.90
12130;DHT22;6128;59.340;18.040;2022-08-19T09:42:16;29.00;99.90
12130;DHT22;6128;59.340;18.040;2022-08-19T09:44:44;28.90;99.90
12130;DHT22;6128;59.340;18.040;2022-08-19T09:47:13;28.70;99.90
12130;DHT22;6128;59.340;18.040;2022-08-19T09:49:41;28.60;99.90
12130;DHT22;6128;59.340;18.040;2022-08-19T09:52:09;28.50;99.90
12130;DHT22;6128;59.340;18.040;2022-08-19T09:54:36;28.40;99.90
12130;DHT22;6128;59.340;18.040;2022-08-19T09:57:04;28.40;99.90
12130;DHT22;6128;59.340;18.040;2022-08-19T09:59:33;28.40;99.90
12130;DHT22;6128;59.340;18.040;2022-08-19T10:02:01;28.30;99.90
12130;DHT22;6128;59.340;18.040;2022-08-19T10:04:28;28.30;99.90
12130;DHT22;6128;59.340;18.040;2022-08-19T10:07:09;28.40;99.90
12130;DHT22;6128;59.340;18.040;2022-08-19T10:09:36;28.40;99.90
12130;DHT22;6128;59.340;18.040;2022-08-19T10:12:05;28.40;99.90
12130;DHT22;6128;59.340;18.040;2022-08-19T10:14:34;28.40;99.90
12130;DHT22;6128;59.340;18.040;2022-08-19T10:17:01;28.30;99.90
12130;DHT22;6128;59.340;18.040;2022-08-19T10:19:29;28.30;99.90
12130;DHT22;6128;59.340;18.040;2022-08-19T10:22:03;28.40;99.90
12130;DHT22;6128;59.340;18.040;2022-08-19T10:24:31;28.40;99.90
12130;DHT22;6128;59.340;18.040;2022-08-19T10:26:59;28.40;99.90
12130;DHT22;6128;59.340;18.040;2022-08-19T10:29:29;28.50;99.90
12130;DHT22;6128;59.340;18.040;2022-08-19T10:31:58;28.60;99.90
12130;DHT22;6128;59.340;18.040;2022-08-19T10:34:26;28.60;99.90
12130;DHT22;6128;59.340;18.040;2022-08-19T10:36:53;28.70;99.90
12130;DHT22;6128;59.340;18.040;2022-08-19T10:39:20;28.70;99.90
12130;DHT22;6128;59.340;18.040;2022-08-19T10:41:48;28.80;99.90
12130;DHT22;6128;59.340;18.040;2022-08-19T10:44:15;28.90;99.90
12130;DHT22;6128;59.340;18.040;2022-08-19T10:46:44;28.90;99.90
12130;DHT22;6128;59.340;18.040;2022-08-19T10:49:14;28.90;99.90
12130;DHT22;6128;59.340;18.040;2022-08-19T10:51:42;29.00;99.90
12130;DHT22;6128;59.340;18.040;2022-08-19T10:54:27;29.10;99.90
12130;DHT22;6128;59.340;18.040;2022-08-19T10:57:14;29.20;99.90
12130;DHT22;6128;59.340;18.040;2022-08-19T10:59:44;29.20;99.90
12130;DHT22;6128;59.340;18.040;2022-08-19T11:02:12;29.20;99.90
12130;DHT22;6128;59.340;18.040;2022-08-19T11:04:41;29.30;99.90
12130;DHT22;6128;59.340;18.040;2022-08-19T11:07:08;29.40;99.90
12130;DHT22;6128;59.340;18.040;2022-08-19T11:09:39;29.40;99.90
12130;DHT22;6128;59.340;18.040;2022-08-19T11:12:08;29.50;99.90
12130;DHT22;6128;59.340;18.040;2022-08-19T11:14:36;29.50;99.90
12130;DHT22;6128;59.340;18.040;2022-08-19T11:17:04;29.60;99.90
12130;DHT22;6128;59.340;18.040;2022-08-19T11:19:32;29.70;99.90
12130;DHT22;6128;59.340;18.040;2022-08-19T11:22:01;29.80;99.90
12130;DHT22;6128;59.340;18.040;2022-08-19T11:24:29;29.90;99.90
12130;DHT22;6128;59.340;18.040;2022-08-19T11:27:02;30.10;99.90
12130;DHT22;6128;59.340;18.040;2022-08-19T11:29:30;30.10;99.90
12130;DHT22;6128;59.340;18.040;2022-08-19T11:31:58;30.20;99.90
12130;DHT22;6128;59.340;18.040;2022-08-19T11:34:28;30.20;99.90
12130;DHT22;6128;59.340;18.040;2022-08-19T11:36:56;30.30;99.90
12130;DHT22;6128;59.340;18.040;2022-08-19T11:39:28;30.40;99.90
12130;DHT22;6128;59.340;18.040;2022-08-19T11:41:57;30.40;99.90
12130;DHT22;6128;59.340;18.040;2022-08-19T11:44:24;30.50;99.90
12130;DHT22;6128;59.340;18.040;2022-08-19T11:46:51;30.50;99.90
12130;DHT22;6128;59.340;18.040;2022-08-19T11:49:20;30.50;99.90
12130;DHT22;6128;59.340;18.040;2022-08-19T11:51:48;30.40;99.90
12130;DHT22;6128;59.340;18.040;2022-08-19T11:54:17;30.40;99.90
12130;DHT22;6128;59.340;18.040;2022-08-19T11:56:46;30.20;99.90
12130;DHT22;6128;59.340;18.040;2022-08-19T11:59:14;30.20;99.90
12130;DHT22;6128;59.340;18.040;2022-08-19T12:01:41;30.30;99.90
12130;DHT22;6128;59.340;18.040;2022-08-19T12:04:12;30.30;99.90
12130;DHT22;6128;59.340;18.040;2022-08-19T12:06:40;30.40;99.90
12130;DHT22;6128;59.340;18.040;2022-08-19T12:09:08;30.40;99.90
12130;DHT22;6128;59.340;18.040;2022-08-19T12:11:36;30.40;99.90
12130;DHT22;6128;59.340;18.040;2022-08-19T12:14:06;30.40;99.90
12130;DHT22;6128;59.340;18.040;2022-08-19T12:16:33;30.40;99.90
12130;DHT22;6128;59.340;18.040;2022-08-19T12:19:03;30.50;99.90
12130;DHT22;6128;59.340;18.040;2022-08-19T12:21:32;30.60;99.90
12130;DHT22;6128;59.340;18.040;2022-08-19T12:24:01;30.70;99.90
12130;DHT22;6128;59.340;18.040;2022-08-19T12:26:30;30.70;99.90
12130;DHT22;6128;59.340;18.040;2022-08-19T12:28:58;30.70;99.90
12130;DHT22;6128;59.340;18.040;2022-08-19T12:31:27;30.70;99.90
12130;DHT22;6128;59.340;18.040;2022-08-19T12:33:55;30.80;99.90
12130;DHT22;6128;59.340;18.040;2022-08-19T12:36:22;30.80;99.90
12130;DHT22;6128;59.340;18.040;2022-08-19T12:38:50;30.70;99.90
12130;DHT22;6128;59.340;18.040;2022-08-19T12:41:19;30.70;99.90
12130;DHT22;6128;59.340;18.040;2022-08-19T12:43:48;30.70;99.90
12130;DHT22;6128;59.340;18.040;2022-08-19T12:46:16;30.70;99.90
12130;DHT22;6128;59.340;18.040;2022-08-19T12:48:45;30.80;99.80
12130;DHT22;6128;59.340;18.040;2022-08-19T12:51:15;30.80;99.80
12130;DHT22;6128;59.340;18.040;2022-08-19T12:53:44;30.80;99.70
12130;DHT22;6128;59.340;18.040;2022-08-19T12:56:13;30.90;99.60
12130;DHT22;6128;59.340;18.040;2022-08-19T12:58:41;31.00;99.40
12130;DHT22;6128;59.340;18.040;2022-08-19T13:01:10;31.10;99.30
12130;DHT22;6128;59.340;18.040;2022-08-19T13:03:38;31.00;99.20
12130;DHT22;6128;59.340;18.040;2022-08-19T13:06:08;30.90;99.00
12130;DHT22;6128;59.340;18.040;2022-08-19T13:08:36;30.90;99.00
12130;DHT22;6128;59.340;18.040;2022-08-19T13:11:09;30.80;98.90
12130;DHT22;6128;59.340;18.040;2022-08-19T13:13:38;30.70;98.80
12130;DHT22;6128;59.340;18.040;2022-08-19T13:16:07;30.70;98.80
12130;DHT22;6128;59.340;18.040;2022-08-19T13:18:35;30.80;98.80
12130;DHT22;6128;59.340;18.040;2022-08-19T13:21:04;30.90;98.90
12130;DHT22;6128;59.340;18.040;2022-08-19T13:23:34;30.90;98.90
12130;DHT22;6128;59.340;18.040;2022-08-19T13:26:05;30.90;98.90
12130;DHT22;6128;59.340;18.040;2022-08-19T13:28:33;30.90;99.00
12130;DHT22;6128;59.340;18.040;2022-08-19T13:31:16;30.90;99.00
12130;DHT22;6128;59.340;18.040;2022-08-19T13:34:06;30.90;99.00
12130;DHT22;6128;59.340;18.040;2022-08-19T13:36:34;31.00;98.90
12130;DHT22;6128;59.340;18.040;2022-08-19T13:39:04;31.10;98.90
12130;DHT22;6128;59.340;18.040;2022-08-19T13:41:32;31.10;98.80
12130;DHT22;6128;59.340;18.040;2022-08-19T13:44:00;31.20;98.80
12130;DHT22;6128;59.340;18.040;2022-08-19T13:46:28;31.00;98.70
12130;DHT22;6128;59.340;18.040;2022-08-19T13:48:55;30.80;98.70
12130;DHT22;6128;59.340;18.040;2022-08-19T13:51:23;30.50;98.70
12130;DHT22;6128;59.340;18.040;2022-08-19T13:53:51;30.40;98.70
12130;DHT22;6128;59.340;18.040;2022-08-19T13:56:20;30.30;98.80
12130;DHT22;6128;59.340;18.040;2022-08-19T13:58:48;30.30;98.90
12130;DHT22;6128;59.340;18.040;2022-08-19T14:01:19;30.20;99.00
12130;DHT22;6128;59.340;18.040;2022-08-19T14:03:47;30.10;99.10
12130;DHT22;6128;59.340;18.040;2022-08-19T14:06:14;30.10;99.20
12130;DHT22;6128;59.340;18.040;2022-08-19T14:08:42;30.10;99.30
12130;DHT22;6128;59.340;18.040;2022-08-19T14:11:10;30.10;99.40
12130;DHT22;6128;59.340;18.040;2022-08-19T14:13:38;30.00;99.50
12130;DHT22;6128;59.340;18.040;2022-08-19T14:16:09;30.00;99.60
12130;DHT22;6128;59.340;18.040;2022-08-19T14:18:37;29.80;99.70
12130;DHT22;6128;59.340;18.040;2022-08-19T14:21:06;29.60;99.80
12130;DHT22;6128;59.340;18.040;2022-08-19T14:23:34;29.50;99.80
12130;DHT22;6128;59.340;18.040;2022-08-19T14:26:07;29.40;99.90
12130;DHT22;6128;59.340;18.040;2022-08-19T14:28:34;29.30;99.90
12130;DHT22;6128;59.340;18.040;2022-08-19T14:31:03;29.20;99.90
12130;DHT22;6128;59.340;18.040;2022-08-19T14:33:30;29.00;99.90
12130;DHT22;6128;59.340;18.040;2022-08-19T14:35:58;29.00;99.90
12130;DHT22;6128;59.340;18.040;2022-08-19T14:38:26;28.90;99.90
12130;DHT22;6128;59.340;18.040;2022-08-19T14:41:09;28.70;99.90
12130;DHT22;6128;59.340;18.040;2022-08-19T14:43:36;28.60;99.90
12130;DHT22;6128;59.340;18.040;2022-08-19T14:46:05;28.50;99.90
12130;DHT22;6128;59.340;18.040;2022-08-19T14:48:33;28.50;99.90
12130;DHT22;6128;59.340;18.040;2022-08-19T14:51:02;28.40;99.90
12130;DHT22;6128;59.340;18.040;2022-08-19T14:53:29;28.40;99.90
12130;DHT22;6128;59.340;18.040;2022-08-19T14:55:57;28.30;99.90
12130;DHT22;6128;59.340;18.040;2022-08-19T14:58:24;28.30;99.90
12130;DHT22;6128;59.340;18.040;2022-08-19T15:00:51;28.30;99.90
12130;DHT22;6128;59.340;18.040;2022-08-19T15:03:20;28.30;99.90
12130;DHT22;6128;59.340;18.040;2022-08-19T15:05:47;28.30;99.90
12130;DHT22;6128;59.340;18.040;2022-08-19T15:08:14;28.40;99.90
12130;DHT22;6128;59.340;18.040;2022-08-19T15:10:41;28.50;99.90
12130;DHT22;6128;59.340;18.040;2022-08-19T15:13:08;28.60;99.90
12130;DHT22;6128;59.340;18.040;2022-08-19T15:15:35;28.60;99.90
12130;DHT22;6128;59.340;18.040;2022-08-19T15:18:03;28.60;99.90
12130;DHT22;6128;59.340;18.040;2022-08-19T15:20:31;28.60;99.90
12130;DHT22;6128;59.340;18.040;2022-08-19T15:22:58;28.60;99.90
12130;DHT22;6128;59.340;18.040;2022-08-19T15:25:26;28.60;99.90
12130;DHT22;6128;59.340;18.040;2022-08-19T15:27:54;28.70;99.90
12130;DHT22;6128;59.340;18.040;2022-08-19T15:30:25;28.70;99.90
12130;DHT22;6128;59.340;18.040;2022-08-19T15:32:53;28.60;99.90
12130;DHT22;6128;59.340;18.040;2022-08-19T15:35:21;28.60;99.90
12130;DHT22;6128;59.340;18.040;2022-08-19T15:37:51;28.60;99.90
12130;DHT22;6128;59.340;18.040;2022-08-19T15:40:19;28.50;99.90
12130;DHT22;6128;59.340;18.040;2022-08-19T15:42:47;28.40;99.90